sensor_id;sensor_type;location;lat;lon;timestamp;P1;durP1;ratioP1;P2;durP2;ratioP2
6095;SDS011;25081;42.698;23.298;2023-04-01T00:00:50;37.67;;;21.33;;
6095;SDS011;25081;42.698;23.298;2023-04-01T00:03:00;27.23;;;19.67;;
6095;SDS011;25081;42.698;23.298;2023-04-01T00:05:11;27.93;;;19.20;;
6095;SDS011;25081;42.698;23.298;2023-04-01T00:07:21;28.77;;;18.17;;
6095;SDS011;25081;42.698;23.298;2023-04-01T00:09:32;25.07;;;18.13;;
6095;SDS011;25081;42.698;23.298;2023-04-01T00:11:42;31.70;;;18.60;;
6095;SDS011;25081;42.698;23.298;2023-04-01T00:13:53;29.20;;;17.27;;
6095;SDS011;25081;42.698;23.298;2023-04-01T00:16:04;30.80;;;17.00;;
6095;SDS011;25081;42.698;23.298;2023-04-01T00:18:15;26.80;;;16.97;;
6095;SDS011;25081;42.698;23.298;2023-04-01T00:20:26;33.80;;;17.67;;
6095;SDS011;25081;42.698;23.298;2023-04-01T00:22:36;24.10;;;16.70;;
6095;SDS011;25081;42.698;23.298;2023-04-01T00:24:47;31.52;;;18.67;;
6095;SDS011;25081;42.698;23.298;2023-04-01T00:26:57;32.33;;;18.80;;
6095;SDS011;25081;42.698;23.298;2023-04-01T00:29:08;23.50;;;17.15;;
6095;SDS011;25081;42.698;23.298;2023-04-01T00:31:18;24.70;;;17.60;;
6095;SDS011;25081;42.698;23.298;2023-04-01T00:33:29;28.90;;;19.17;;
6095;SDS011;25081;42.698;23.298;2023-04-01T00:35:39;22.77;;;16.60;;
6095;SDS011;25081;42.698;23.298;2023-04-01T00:37:50;21.05;;;14.55;;
6095;SDS011;25081;42.698;23.298;2023-04-01T00:40:00;23.63;;;14.17;;
6095;SDS011;25081;42.698;23.298;2023-04-01T00:42:11;22.48;;;15.28;;
6095;SDS011;25081;42.698;23.298;2023-04-01T00:44:23;28.55;;;17.45;;
6095;SDS011;25081;42.698;23.298;2023-04-01T00:46:33;21.93;;;13.43;;
6095;SDS011;25081;42.698;23.298;2023-04-01T00:48:46;24.87;;;14.73;;
6095;SDS011;25081;42.698;23.298;2023-04-01T00:50:55;20.85;;;13.75;;
6095;SDS011;25081;42.698;23.298;2023-04-01T00:53:05;21.20;;;15.05;;
6095;SDS011;25081;42.698;23.298;2023-04-01T00:57:39;27.70;;;14.10;;
6095;SDS011;25081;42.698;23.298;2023-04-01T00:59:50;22.73;;;14.40;;
6095;SDS011;25081;42.698;23.298;2023-04-01T01:02:01;18.52;;;11.00;;
6095;SDS011;25081;42.698;23.298;2023-04-01T01:04:21;17.73;;;12.68;;
6095;SDS011;25081;42.698;23.298;2023-04-01T01:06:37;22.93;;;13.93;;
6095;SDS011;25081;42.698;23.298;2023-04-01T01:08:52;20.15;;;14.20;;
6095;SDS011;25081;42.698;23.298;2023-04-01T01:11:11;28.95;;;14.58;;
6095;SDS011;25081;42.698;23.298;2023-04-01T01:13:24;23.60;;;14.33;;
6095;SDS011;25081;42.698;23.298;2023-04-01T01:15:35;20.68;;;13.93;;
6095;SDS011;25081;42.698;23.298;2023-04-01T01:17:47;22.75;;;14.28;;
6095;SDS011;25081;42.698;23.298;2023-04-01T01:20:04;22.00;;;14.68;;
6095;SDS011;25081;42.698;23.298;2023-04-01T01:22:22;26.45;;;13.85;;
6095;SDS011;25081;42.698;23.298;2023-04-01T01:25:16;21.80;;;14.03;;
6095;SDS011;25081;42.698;23.298;2023-04-01T01:27:28;23.83;;;13.60;;
6095;SDS011;25081;42.698;23.298;2023-04-01T01:29:57;24.47;;;14.75;;
6095;SDS011;25081;42.698;23.298;2023-04-01T01:32:41;19.25;;;11.88;;
6095;SDS011;25081;42.698;23.298;2023-04-01T01:34:55;25.72;;;13.65;;
6095;SDS011;25081;42.698;23.298;2023-04-01T01:37:06;22.37;;;12.80;;
6095;SDS011;25081;42.698;23.298;2023-04-01T01:39:16;18.60;;;12.28;;
6095;SDS011;25081;42.698;23.298;2023-04-01T01:41:26;19.60;;;12.85;;
6095;SDS011;25081;42.698;23.298;2023-04-01T01:43:39;19.77;;;13.32;;
6095;SDS011;25081;42.698;23.298;2023-04-01T01:45:49;21.33;;;11.18;;
6095;SDS011;25081;42.698;23.298;2023-04-01T01:47:59;25.97;;;12.45;;
6095;SDS011;25081;42.698;23.298;2023-04-01T01:50:09;18.48;;;11.60;;
6095;SDS011;25081;42.698;23.298;2023-04-01T01:52:20;22.50;;;11.75;;
6095;SDS011;25081;42.698;23.298;2023-04-01T01:54:31;24.05;;;12.35;;
6095;SDS011;25081;42.698;23.298;2023-04-01T01:56:42;20.27;;;13.28;;
6095;SDS011;25081;42.698;23.298;2023-04-01T01:58:53;22.52;;;12.30;;
6095;SDS011;25081;42.698;23.298;2023-04-01T02:01:04;22.93;;;13.35;;
6095;SDS011;25081;42.698;23.298;2023-04-01T02:03:15;21.65;;;12.55;;
6095;SDS011;25081;42.698;23.298;2023-04-01T02:05:25;19.70;;;12.45;;
6095;SDS011;25081;42.698;23.298;2023-04-01T02:07:35;21.90;;;11.80;;
6095;SDS011;25081;42.698;23.298;2023-04-01T02:09:46;20.57;;;12.23;;
6095;SDS011;25081;42.698;23.298;2023-04-01T02:11:57;15.72;;;10.63;;
6095;SDS011;25081;42.698;23.298;2023-04-01T02:14:08;18.53;;;11.27;;
6095;SDS011;25081;42.698;23.298;2023-04-01T02:16:19;22.73;;;14.60;;
6095;SDS011;25081;42.698;23.298;2023-04-01T02:18:29;18.55;;;12.37;;
6095;SDS011;25081;42.698;23.298;2023-04-01T02:20:40;20.30;;;13.90;;
6095;SDS011;25081;42.698;23.298;2023-04-01T02:22:51;21.90;;;12.80;;
6095;SDS011;25081;42.698;23.298;2023-04-01T02:25:03;21.12;;;12.45;;
6095;SDS011;25081;42.698;23.298;2023-04-01T02:27:13;20.95;;;11.88;;
6095;SDS011;25081;42.698;23.298;2023-04-01T02:29:23;19.30;;;12.30;;
6095;SDS011;25081;42.698;23.298;2023-04-01T02:31:34;19.70;;;12.50;;
6095;SDS011;25081;42.698;23.298;2023-04-01T02:33:44;23.17;;;12.50;;
6095;SDS011;25081;42.698;23.298;2023-04-01T02:35:55;18.62;;;10.90;;
6095;SDS011;25081;42.698;23.298;2023-04-01T02:38:05;21.93;;;12.60;;
6095;SDS011;25081;42.698;23.298;2023-04-01T02:40:16;19.70;;;11.73;;
6095;SDS011;25081;42.698;23.298;2023-04-01T02:42:26;20.67;;;11.63;;
6095;SDS011;25081;42.698;23.298;2023-04-01T02:44:37;22.10;;;12.20;;
6095;SDS011;25081;42.698;23.298;2023-04-01T02:46:48;19.87;;;12.73;;
6095;SDS011;25081;42.698;23.298;2023-04-01T02:48:58;17.00;;;12.17;;
6095;SDS011;25081;42.698;23.298;2023-04-01T02:51:09;18.40;;;12.50;;
6095;SDS011;25081;42.698;23.298;2023-04-01T02:53:19;27.40;;;12.60;;
6095;SDS011;25081;42.698;23.298;2023-04-01T02:55:30;26.00;;;13.20;;
6095;SDS011;25081;42.698;23.298;2023-04-01T02:57:40;27.03;;;14.00;;
6095;SDS011;25081;42.698;23.298;2023-04-01T02:59:51;25.80;;;12.87;;
6095;SDS011;25081;42.698;23.298;2023-04-01T03:02:02;19.60;;;12.60;;
6095;SDS011;25081;42.698;23.298;2023-04-01T03:04:12;23.60;;;13.90;;
6095;SDS011;25081;42.698;23.298;2023-04-01T03:06:23;23.37;;;13.50;;
6095;SDS011;25081;42.698;23.298;2023-04-01T03:08:34;19.90;;;14.20;;
6095;SDS011;25081;42.698;23.298;2023-04-01T03:10:44;26.10;;;15.60;;
6095;SDS011;25081;42.698;23.298;2023-04-01T03:12:55;24.07;;;14.67;;
6095;SDS011;25081;42.698;23.298;2023-04-01T03:15:06;19.90;;;14.30;;
6095;SDS011;25081;42.698;23.298;2023-04-01T03:17:17;30.23;;;17.90;;
6095;SDS011;25081;42.698;23.298;2023-04-01T03:19:28;23.00;;;16.13;;
6095;SDS011;25081;42.698;23.298;2023-04-01T03:21:38;29.80;;;17.10;;
6095;SDS011;25081;42.698;23.298;2023-04-01T03:23:49;29.40;;;16.87;;
6095;SDS011;25081;42.698;23.298;2023-04-01T03:25:59;26.93;;;17.03;;
6095;SDS011;25081;42.698;23.298;2023-04-01T03:28:09;24.37;;;17.33;;
6095;SDS011;25081;42.698;23.298;2023-04-01T03:30:21;27.13;;;18.50;;
6095;SDS011;25081;42.698;23.298;2023-04-01T03:32:31;31.35;;;18.32;;
6095;SDS011;25081;42.698;23.298;2023-04-01T03:34:42;26.42;;;17.12;;
6095;SDS011;25081;42.698;23.298;2023-04-01T03:36:53;23.50;;;17.40;;
6095;SDS011;25081;42.698;23.298;2023-04-01T03:39:04;33.15;;;17.60;;
6095;SDS011;25081;42.698;23.298;2023-04-01T03:41:28;27.98;;;16.60;;
6095;SDS011;25081;42.698;23.298;2023-04-01T03:43:39;26.70;;;16.90;;
6095;SDS011;25081;42.698;23.298;2023-04-01T03:45:50;24.00;;;17.90;;
6095;SDS011;25081;42.698;23.298;2023-04-01T03:48:00;22.65;;;15.68;;
6095;SDS011;25081;42.698;23.298;2023-04-01T03:50:11;27.20;;;14.25;;
6095;SDS011;25081;42.698;23.298;2023-04-01T03:52:21;19.50;;;12.63;;
6095;SDS011;25081;42.698;23.298;2023-04-01T03:54:32;28.75;;;15.05;;
6095;SDS011;25081;42.698;23.298;2023-04-01T03:56:43;24.87;;;14.13;;
6095;SDS011;25081;42.698;23.298;2023-04-01T03:58:53;23.32;;;14.05;;
6095;SDS011;25081;42.698;23.298;2023-04-01T04:01:04;26.07;;;14.50;;
6095;SDS011;25081;42.698;23.298;2023-04-01T04:03:22;21.35;;;15.55;;
6095;SDS011;25081;42.698;23.298;2023-04-01T04:05:33;55.43;;;19.15;;
6095;SDS011;25081;42.698;23.298;2023-04-01T04:07:43;26.20;;;16.60;;
6095;SDS011;25081;42.698;23.298;2023-04-01T04:09:54;32.00;;;18.40;;
6095;SDS011;25081;42.698;23.298;2023-04-01T04:12:05;35.58;;;21.85;;
6095;SDS011;25081;42.698;23.298;2023-04-01T04:14:16;25.88;;;16.27;;
6095;SDS011;25081;42.698;23.298;2023-04-01T04:16:26;25.82;;;14.75;;
6095;SDS011;25081;42.698;23.298;2023-04-01T04:18:37;29.65;;;14.40;;
6095;SDS011;25081;42.698;23.298;2023-04-01T04:20:48;21.33;;;13.20;;
6095;SDS011;25081;42.698;23.298;2023-04-01T04:22:58;21.68;;;14.47;;
6095;SDS011;25081;42.698;23.298;2023-04-01T04:25:10;15.85;;;12.18;;
6095;SDS011;25081;42.698;23.298;2023-04-01T04:27:20;21.55;;;13.70;;
6095;SDS011;25081;42.698;23.298;2023-04-01T04:29:31;19.17;;;10.88;;
6095;SDS011;25081;42.698;23.298;2023-04-01T04:31:41;19.90;;;13.88;;
6095;SDS011;25081;42.698;23.298;2023-04-01T04:33:52;18.70;;;12.13;;
6095;SDS011;25081;42.698;23.298;2023-04-01T04:36:02;21.43;;;12.50;;
6095;SDS011;25081;42.698;23.298;2023-04-01T04:38:13;27.83;;;13.73;;
6095;SDS011;25081;42.698;23.298;2023-04-01T04:40:24;21.23;;;12.95;;
6095;SDS011;25081;42.698;23.298;2023-04-01T04:42:34;19.67;;;12.53;;
6095;SDS011;25081;42.698;23.298;2023-04-01T04:44:45;23.67;;;12.60;;
6095;SDS011;25081;42.698;23.298;2023-04-01T04:46:55;20.72;;;12.82;;
6095;SDS011;25081;42.698;23.298;2023-04-01T04:49:06;23.52;;;15.15;;
6095;SDS011;25081;42.698;23.298;2023-04-01T04:51:17;24.13;;;13.83;;
6095;SDS011;25081;42.698;23.298;2023-04-01T04:53:27;25.40;;;15.30;;
6095;SDS011;25081;42.698;23.298;2023-04-01T04:55:37;22.33;;;13.00;;
6095;SDS011;25081;42.698;23.298;2023-04-01T04:57:48;30.10;;;14.05;;
6095;SDS011;25081;42.698;23.298;2023-04-01T04:59:58;27.93;;;14.30;;
6095;SDS011;25081;42.698;23.298;2023-04-01T05:02:09;23.23;;;12.83;;
6095;SDS011;25081;42.698;23.298;2023-04-01T05:04:20;22.27;;;13.80;;
6095;SDS011;25081;42.698;23.298;2023-04-01T05:06:30;27.43;;;14.80;;
6095;SDS011;25081;42.698;23.298;2023-04-01T05:08:41;20.23;;;13.33;;
6095;SDS011;25081;42.698;23.298;2023-04-01T05:10:51;21.90;;;13.20;;
6095;SDS011;25081;42.698;23.298;2023-04-01T05:13:02;26.23;;;13.40;;
6095;SDS011;25081;42.698;23.298;2023-04-01T05:15:12;24.70;;;13.40;;
6095;SDS011;25081;42.698;23.298;2023-04-01T05:17:23;19.80;;;11.90;;
6095;SDS011;25081;42.698;23.298;2023-04-01T05:19:33;22.87;;;14.37;;
6095;SDS011;25081;42.698;23.298;2023-04-01T05:21:44;24.17;;;13.20;;
6095;SDS011;25081;42.698;23.298;2023-04-01T05:23:54;28.33;;;11.60;;
6095;SDS011;25081;42.698;23.298;2023-04-01T05:26:05;30.90;;;9.80;;
6095;SDS011;25081;42.698;23.298;2023-04-01T05:28:16;19.73;;;10.53;;
6095;SDS011;25081;42.698;23.298;2023-04-01T05:30:26;17.73;;;10.57;;
6095;SDS011;25081;42.698;23.298;2023-04-01T05:32:37;28.90;;;11.33;;
6095;SDS011;25081;42.698;23.298;2023-04-01T05:34:47;16.77;;;11.07;;
6095;SDS011;25081;42.698;23.298;2023-04-01T05:37:00;23.93;;;10.37;;
6095;SDS011;25081;42.698;23.298;2023-04-01T05:39:10;14.70;;;8.17;;
6095;SDS011;25081;42.698;23.298;2023-04-01T05:41:21;19.20;;;10.17;;
6095;SDS011;25081;42.698;23.298;2023-04-01T05:43:31;18.47;;;9.50;;
6095;SDS011;25081;42.698;23.298;2023-04-01T05:45:42;13.97;;;8.50;;
6095;SDS011;25081;42.698;23.298;2023-04-01T05:47:52;14.60;;;8.03;;
6095;SDS011;25081;42.698;23.298;2023-04-01T05:50:03;15.80;;;8.80;;
6095;SDS011;25081;42.698;23.298;2023-04-01T05:52:14;12.97;;;8.00;;
6095;SDS011;25081;42.698;23.298;2023-04-01T05:54:24;14.63;;;7.63;;
6095;SDS011;25081;42.698;23.298;2023-04-01T05:56:35;12.73;;;7.57;;
6095;SDS011;25081;42.698;23.298;2023-04-01T05:58:46;14.80;;;7.67;;
6095;SDS011;25081;42.698;23.298;2023-04-01T06:01:00;10.87;;;7.37;;
6095;SDS011;25081;42.698;23.298;2023-04-01T06:03:11;13.17;;;6.60;;
6095;SDS011;25081;42.698;23.298;2023-04-01T06:05:23;21.40;;;8.23;;
6095;SDS011;25081;42.698;23.298;2023-04-01T06:07:32;22.40;;;13.80;;
6095;SDS011;25081;42.698;23.298;2023-04-01T06:09:43;17.20;;;9.83;;
6095;SDS011;25081;42.698;23.298;2023-04-01T06:12:00;13.67;;;8.23;;
6095;SDS011;25081;42.698;23.298;2023-04-01T06:14:16;12.13;;;7.00;;
6095;SDS011;25081;42.698;23.298;2023-04-01T06:16:29;13.07;;;7.20;;
6095;SDS011;25081;42.698;23.298;2023-04-01T06:18:45;10.80;;;8.23;;
6095;SDS011;25081;42.698;23.298;2023-04-01T06:20:58;17.40;;;7.10;;
6095;SDS011;25081;42.698;23.298;2023-04-01T06:23:17;13.30;;;7.10;;
6095;SDS011;25081;42.698;23.298;2023-04-01T06:25:42;11.10;;;6.30;;
6095;SDS011;25081;42.698;23.298;2023-04-01T06:27:59;12.37;;;7.47;;
6095;SDS011;25081;42.698;23.298;2023-04-01T06:30:27;12.27;;;6.20;;
6095;SDS011;25081;42.698;23.298;2023-04-01T06:32:44;16.40;;;7.13;;
6095;SDS011;25081;42.698;23.298;2023-04-01T06:37:37;10.40;;;5.93;;
6095;SDS011;25081;42.698;23.298;2023-04-01T06:40:01;7.43;;;5.30;;
6095;SDS011;25081;42.698;23.298;2023-04-01T06:42:30;9.17;;;5.70;;
6095;SDS011;25081;42.698;23.298;2023-04-01T06:44:45;11.77;;;5.57;;
6095;SDS011;25081;42.698;23.298;2023-04-01T06:46:57;11.53;;;6.57;;
6095;SDS011;25081;42.698;23.298;2023-04-01T06:49:16;6.93;;;5.17;;
6095;SDS011;25081;42.698;23.298;2023-04-01T06:51:38;11.07;;;5.83;;
6095;SDS011;25081;42.698;23.298;2023-04-01T06:53:49;10.63;;;5.50;;
6095;SDS011;25081;42.698;23.298;2023-04-01T06:56:01;10.90;;;6.80;;
6095;SDS011;25081;42.698;23.298;2023-04-01T06:58:13;12.13;;;6.00;;
6095;SDS011;25081;42.698;23.298;2023-04-01T07:00:26;14.57;;;6.57;;
6095;SDS011;25081;42.698;23.298;2023-04-01T07:02:41;11.00;;;5.60;;
6095;SDS011;25081;42.698;23.298;2023-04-01T07:04:51;24.03;;;6.27;;
6095;SDS011;25081;42.698;23.298;2023-04-01T07:07:01;10.03;;;6.13;;
6095;SDS011;25081;42.698;23.298;2023-04-01T07:09:12;10.40;;;6.47;;
6095;SDS011;25081;42.698;23.298;2023-04-01T07:11:24;11.60;;;6.93;;
6095;SDS011;25081;42.698;23.298;2023-04-01T07:13:36;11.17;;;6.20;;
6095;SDS011;25081;42.698;23.298;2023-04-01T07:15:48;13.30;;;6.40;;
6095;SDS011;25081;42.698;23.298;2023-04-01T07:18:00;15.93;;;6.90;;
6095;SDS011;25081;42.698;23.298;2023-04-01T07:20:12;13.23;;;5.47;;
6095;SDS011;25081;42.698;23.298;2023-04-01T07:22:25;11.37;;;7.70;;
6095;SDS011;25081;42.698;23.298;2023-04-01T07:24:34;10.67;;;6.00;;
6095;SDS011;25081;42.698;23.298;2023-04-01T07:26:44;15.47;;;7.40;;
6095;SDS011;25081;42.698;23.298;2023-04-01T07:28:55;15.13;;;6.30;;
6095;SDS011;25081;42.698;23.298;2023-04-01T07:31:07;9.70;;;6.03;;
6095;SDS011;25081;42.698;23.298;2023-04-01T07:33:21;7.97;;;5.73;;
6095;SDS011;25081;42.698;23.298;2023-04-01T07:35:33;12.93;;;6.70;;
6095;SDS011;25081;42.698;23.298;2023-04-01T07:37:45;14.00;;;6.17;;
6095;SDS011;25081;42.698;23.298;2023-04-01T07:39:57;15.53;;;5.60;;
6095;SDS011;25081;42.698;23.298;2023-04-01T07:42:08;11.77;;;6.87;;
6095;SDS011;25081;42.698;23.298;2023-04-01T07:44:19;14.60;;;7.13;;
6095;SDS011;25081;42.698;23.298;2023-04-01T07:46:43;12.47;;;6.73;;
6095;SDS011;25081;42.698;23.298;2023-04-01T07:49:01;14.43;;;6.90;;
6095;SDS011;25081;42.698;23.298;2023-04-01T07:51:12;13.63;;;6.23;;
6095;SDS011;25081;42.698;23.298;2023-04-01T07:53:23;9.30;;;5.57;;
6095;SDS011;25081;42.698;23.298;2023-04-01T07:55:34;18.00;;;7.03;;
6095;SDS011;25081;42.698;23.298;2023-04-01T07:57:46;14.00;;;7.00;;
6095;SDS011;25081;42.698;23.298;2023-04-01T07:59:58;16.60;;;7.20;;
6095;SDS011;25081;42.698;23.298;2023-04-01T08:02:10;12.17;;;6.53;;
6095;SDS011;25081;42.698;23.298;2023-04-01T08:04:27;14.90;;;7.07;;
6095;SDS011;25081;42.698;23.298;2023-04-01T08:06:39;12.17;;;7.00;;
6095;SDS011;25081;42.698;23.298;2023-04-01T08:08:52;11.03;;;7.00;;
6095;SDS011;25081;42.698;23.298;2023-04-01T08:11:05;16.40;;;6.33;;
6095;SDS011;25081;42.698;23.298;2023-04-01T08:13:17;17.00;;;7.90;;
6095;SDS011;25081;42.698;23.298;2023-04-01T08:15:28;12.57;;;7.10;;
6095;SDS011;25081;42.698;23.298;2023-04-01T08:17:48;14.93;;;7.07;;
6095;SDS011;25081;42.698;23.298;2023-04-01T08:20:02;15.60;;;8.10;;
6095;SDS011;25081;42.698;23.298;2023-04-01T08:22:20;18.20;;;7.80;;
6095;SDS011;25081;42.698;23.298;2023-04-01T08:24:34;14.03;;;6.50;;
6095;SDS011;25081;42.698;23.298;2023-04-01T08:26:43;13.27;;;7.87;;
6095;SDS011;25081;42.698;23.298;2023-04-01T08:28:54;8.70;;;7.20;;
6095;SDS011;25081;42.698;23.298;2023-04-01T08:31:04;12.83;;;6.43;;
6095;SDS011;25081;42.698;23.298;2023-04-01T08:33:15;13.80;;;6.70;;
6095;SDS011;25081;42.698;23.298;2023-04-01T08:35:27;13.67;;;7.77;;
6095;SDS011;25081;42.698;23.298;2023-04-01T08:37:38;13.60;;;7.00;;
6095;SDS011;25081;42.698;23.298;2023-04-01T08:39:49;12.50;;;6.43;;
6095;SDS011;25081;42.698;23.298;2023-04-01T08:42:09;14.40;;;6.73;;
6095;SDS011;25081;42.698;23.298;2023-04-01T08:44:41;12.60;;;6.47;;
6095;SDS011;25081;42.698;23.298;2023-04-01T08:47:24;14.90;;;5.53;;
6095;SDS011;25081;42.698;23.298;2023-04-01T08:49:44;11.77;;;6.13;;
6095;SDS011;25081;42.698;23.298;2023-04-01T08:52:21;8.70;;;5.50;;
6095;SDS011;25081;42.698;23.298;2023-04-01T08:54:40;11.33;;;5.33;;
6095;SDS011;25081;42.698;23.298;2023-04-01T08:57:03;8.40;;;5.30;;
6095;SDS011;25081;42.698;23.298;2023-04-01T08:59:16;7.90;;;4.33;;
6095;SDS011;25081;42.698;23.298;2023-04-01T09:01:42;8.40;;;5.13;;
6095;SDS011;25081;42.698;23.298;2023-04-01T09:04:04;9.10;;;4.80;;
6095;SDS011;25081;42.698;23.298;2023-04-01T09:06:23;11.20;;;5.27;;
6095;SDS011;25081;42.698;23.298;2023-04-01T09:08:41;15.90;;;4.87;;
6095;SDS011;25081;42.698;23.298;2023-04-01T09:11:00;17.73;;;5.10;;
6095;SDS011;25081;42.698;23.298;2023-04-01T09:13:23;6.53;;;3.80;;
6095;SDS011;25081;42.698;23.298;2023-04-01T09:21:06;17.07;;;12.00;;
6095;SDS011;25081;42.698;23.298;2023-04-01T09:23:31;8.10;;;4.90;;
6095;SDS011;25081;42.698;23.298;2023-04-01T09:25:47;9.10;;;4.03;;
6095;SDS011;25081;42.698;23.298;2023-04-01T09:28:03;11.50;;;5.00;;
6095;SDS011;25081;42.698;23.298;2023-04-01T09:32:54;11.20;;;7.97;;
6095;SDS011;25081;42.698;23.298;2023-04-01T09:35:24;19.73;;;9.90;;
6095;SDS011;25081;42.698;23.298;2023-04-01T09:37:35;9.47;;;4.70;;
6095;SDS011;25081;42.698;23.298;2023-04-01T09:39:47;12.23;;;5.70;;
6095;SDS011;25081;42.698;23.298;2023-04-01T09:42:06;11.53;;;4.90;;
6095;SDS011;25081;42.698;23.298;2023-04-01T09:44:25;8.40;;;4.70;;
6095;SDS011;25081;42.698;23.298;2023-04-01T09:46:37;11.80;;;4.97;;
6095;SDS011;25081;42.698;23.298;2023-04-01T09:49:21;8.83;;;4.40;;
6095;SDS011;25081;42.698;23.298;2023-04-01T09:51:51;8.13;;;4.30;;
6095;SDS011;25081;42.698;23.298;2023-04-01T09:54:07;12.13;;;4.30;;
6095;SDS011;25081;42.698;23.298;2023-04-01T10:02:54;11.37;;;5.50;;
6095;SDS011;25081;42.698;23.298;2023-04-01T10:05:17;12.23;;;4.10;;
6095;SDS011;25081;42.698;23.298;2023-04-01T10:07:52;8.13;;;4.37;;
6095;SDS011;25081;42.698;23.298;2023-04-01T10:12:57;16.80;;;4.83;;
6095;SDS011;25081;42.698;23.298;2023-04-01T10:15:34;9.13;;;4.20;;
6095;SDS011;25081;42.698;23.298;2023-04-01T10:17:57;13.73;;;4.60;;
6095;SDS011;25081;42.698;23.298;2023-04-01T10:20:39;8.80;;;4.40;;
6095;SDS011;25081;42.698;23.298;2023-04-01T10:26:03;6.00;;;3.40;;
6095;SDS011;25081;42.698;23.298;2023-04-01T10:31:35;9.77;;;4.57;;
6095;SDS011;25081;42.698;23.298;2023-04-01T10:34:14;8.40;;;4.73;;
6095;SDS011;25081;42.698;23.298;2023-04-01T10:36:42;11.00;;;4.70;;
6095;SDS011;25081;42.698;23.298;2023-04-01T10:42:05;8.53;;;4.60;;
6095;SDS011;25081;42.698;23.298;2023-04-01T10:49:47;11.10;;;5.50;;
6095;SDS011;25081;42.698;23.298;2023-04-01T10:52:06;16.00;;;5.60;;
6095;SDS011;25081;42.698;23.298;2023-04-01T10:54:47;9.30;;;5.20;;
6095;SDS011;25081;42.698;23.298;2023-04-01T10:56:57;13.07;;;5.13;;
6095;SDS011;25081;42.698;23.298;2023-04-01T11:04:58;11.60;;;5.70;;
6095;SDS011;25081;42.698;23.298;2023-04-01T11:07:50;14.50;;;5.70;;
6095;SDS011;25081;42.698;23.298;2023-04-01T11:10:18;9.10;;;5.60;;
6095;SDS011;25081;42.698;23.298;2023-04-01T11:24:05;13.73;;;6.53;;
6095;SDS011;25081;42.698;23.298;2023-04-01T11:26:23;13.33;;;8.43;;
6095;SDS011;25081;42.698;23.298;2023-04-01T11:28:47;9.83;;;7.07;;
6095;SDS011;25081;42.698;23.298;2023-04-01T11:31:22;11.97;;;6.63;;
6095;SDS011;25081;42.698;23.298;2023-04-01T11:33:36;12.23;;;5.90;;
6095;SDS011;25081;42.698;23.298;2023-04-01T11:35:54;7.80;;;4.00;;
6095;SDS011;25081;42.698;23.298;2023-04-01T11:38:32;9.70;;;3.60;;
6095;SDS011;25081;42.698;23.298;2023-04-01T11:40:47;9.17;;;3.13;;
6095;SDS011;25081;42.698;23.298;2023-04-01T11:42:57;8.03;;;3.13;;
6095;SDS011;25081;42.698;23.298;2023-04-01T11:45:11;9.77;;;4.17;;
6095;SDS011;25081;42.698;23.298;2023-04-01T11:47:34;12.30;;;5.10;;
6095;SDS011;25081;42.698;23.298;2023-04-01T11:49:53;8.97;;;4.20;;
6095;SDS011;25081;42.698;23.298;2023-04-01T11:52:07;11.33;;;3.80;;
6095;SDS011;25081;42.698;23.298;2023-04-01T11:54:34;10.20;;;3.60;;
6095;SDS011;25081;42.698;23.298;2023-04-01T11:56:53;5.10;;;3.57;;
6095;SDS011;25081;42.698;23.298;2023-04-01T11:59:11;11.77;;;5.13;;
6095;SDS011;25081;42.698;23.298;2023-04-01T12:01:41;6.70;;;3.93;;
6095;SDS011;25081;42.698;23.298;2023-04-01T12:06:50;8.20;;;4.60;;
6095;SDS011;25081;42.698;23.298;2023-04-01T12:09:03;14.33;;;5.60;;
6095;SDS011;25081;42.698;23.298;2023-04-01T12:11:15;10.53;;;5.20;;
6095;SDS011;25081;42.698;23.298;2023-04-01T12:13:29;14.40;;;6.80;;
6095;SDS011;25081;42.698;23.298;2023-04-01T12:15:50;9.00;;;5.90;;
6095;SDS011;25081;42.698;23.298;2023-04-01T12:18:09;13.47;;;6.73;;
6095;SDS011;25081;42.698;23.298;2023-04-01T12:20:28;9.13;;;6.20;;
6095;SDS011;25081;42.698;23.298;2023-04-01T12:22:45;11.47;;;5.10;;
6095;SDS011;25081;42.698;23.298;2023-04-01T12:24:57;10.00;;;5.37;;
6095;SDS011;25081;42.698;23.298;2023-04-01T12:27:16;9.50;;;4.60;;
6095;SDS011;25081;42.698;23.298;2023-04-01T12:29:49;13.47;;;6.00;;
6095;SDS011;25081;42.698;23.298;2023-04-01T12:32:04;10.13;;;4.87;;
6095;SDS011;25081;42.698;23.298;2023-04-01T12:34:24;8.37;;;4.63;;
6095;SDS011;25081;42.698;23.298;2023-04-01T12:36:52;12.40;;;4.70;;
6095;SDS011;25081;42.698;23.298;2023-04-01T12:39:20;7.63;;;4.67;;
6095;SDS011;25081;42.698;23.298;2023-04-01T12:41:39;7.97;;;5.33;;
6095;SDS011;25081;42.698;23.298;2023-04-01T12:43:54;5.60;;;4.23;;
6095;SDS011;25081;42.698;23.298;2023-04-01T12:46:20;8.20;;;4.70;;
6095;SDS011;25081;42.698;23.298;2023-04-01T12:48:45;7.67;;;4.40;;
6095;SDS011;25081;42.698;23.298;2023-04-01T12:51:05;10.27;;;5.80;;
6095;SDS011;25081;42.698;23.298;2023-04-01T12:53:38;9.03;;;5.50;;
6095;SDS011;25081;42.698;23.298;2023-04-01T12:55:54;15.60;;;6.30;;
6095;SDS011;25081;42.698;23.298;2023-04-01T12:58:10;8.83;;;5.40;;
6095;SDS011;25081;42.698;23.298;2023-04-01T13:00:46;11.93;;;6.40;;
6095;SDS011;25081;42.698;23.298;2023-04-01T13:03:02;10.37;;;6.00;;
6095;SDS011;25081;42.698;23.298;2023-04-01T13:05:35;9.47;;;6.03;;
6095;SDS011;25081;42.698;23.298;2023-04-01T13:08:09;8.90;;;6.07;;
6095;SDS011;25081;42.698;23.298;2023-04-01T13:10:35;9.33;;;6.10;;
6095;SDS011;25081;42.698;23.298;2023-04-01T13:13:09;12.07;;;6.60;;
6095;SDS011;25081;42.698;23.298;2023-04-01T13:15:41;9.37;;;6.93;;
6095;SDS011;25081;42.698;23.298;2023-04-01T13:17:53;9.57;;;6.57;;
6095;SDS011;25081;42.698;23.298;2023-04-01T13:20:05;10.50;;;6.50;;
6095;SDS011;25081;42.698;23.298;2023-04-01T13:22:16;9.70;;;5.83;;
6095;SDS011;25081;42.698;23.298;2023-04-01T13:24:36;8.10;;;6.30;;
6095;SDS011;25081;42.698;23.298;2023-04-01T13:26:50;8.70;;;4.87;;
6095;SDS011;25081;42.698;23.298;2023-04-01T13:29:01;8.23;;;4.90;;
6095;SDS011;25081;42.698;23.298;2023-04-01T13:31:14;11.40;;;6.60;;
6095;SDS011;25081;42.698;23.298;2023-04-01T13:33:26;15.80;;;11.20;;
6095;SDS011;25081;42.698;23.298;2023-04-01T13:35:38;9.00;;;4.40;;
6095;SDS011;25081;42.698;23.298;2023-04-01T13:37:52;5.23;;;3.90;;
6095;SDS011;25081;42.698;23.298;2023-04-01T13:40:13;8.70;;;4.93;;
6095;SDS011;25081;42.698;23.298;2023-04-01T13:42:29;5.47;;;3.47;;
6095;SDS011;25081;42.698;23.298;2023-04-01T13:44:40;7.90;;;4.30;;
6095;SDS011;25081;42.698;23.298;2023-04-01T13:46:57;5.83;;;3.90;;
6095;SDS011;25081;42.698;23.298;2023-04-01T13:49:26;6.70;;;3.80;;
6095;SDS011;25081;42.698;23.298;2023-04-01T13:52:07;7.93;;;3.60;;
6095;SDS011;25081;42.698;23.298;2023-04-01T13:54:48;6.13;;;3.50;;
6095;SDS011;25081;42.698;23.298;2023-04-01T13:57:07;6.83;;;4.00;;
6095;SDS011;25081;42.698;23.298;2023-04-01T13:59:36;9.67;;;2.80;;
6095;SDS011;25081;42.698;23.298;2023-04-01T14:01:49;5.70;;;2.73;;
6095;SDS011;25081;42.698;23.298;2023-04-01T14:07:00;4.13;;;2.43;;
6095;SDS011;25081;42.698;23.298;2023-04-01T14:11:53;4.67;;;2.10;;
6095;SDS011;25081;42.698;23.298;2023-04-01T14:14:05;4.27;;;2.20;;
6095;SDS011;25081;42.698;23.298;2023-04-01T14:16:25;2.80;;;2.00;;
6095;SDS011;25081;42.698;23.298;2023-04-01T14:18:49;2.80;;;2.17;;
6095;SDS011;25081;42.698;23.298;2023-04-01T14:21:13;2.70;;;1.80;;
6095;SDS011;25081;42.698;23.298;2023-04-01T14:23:34;3.70;;;2.43;;